sensor_id;sensor_type;location;lat;lon;timestamp;P1;durP1;ratioP1;P2;durP2;ratioP2
29854;SDS011;16733;48.738;9.106;2022-07-21T00:00:03;12.02;;;7.07;;
29854;SDS011;16733;48.738;9.106;2022-07-21T00:02:31;11.77;;;7.43;;
29854;SDS011;16733;48.738;9.106;2022-07-21T00:08:18;12.50;;;7.40;;
29854;SDS011;16733;48.738;9.106;2022-07-21T00:10:44;11.50;;;6.40;;
29854;SDS011;16733;48.738;9.106;2022-07-21T00:13:10;11.65;;;7.40;;
29854;SDS011;16733;48.738;9.106;2022-07-21T00:15:35;11.38;;;7.00;;
29854;SDS011;16733;48.738;9.106;2022-07-21T00:21:23;11.35;;;6.47;;
29854;SDS011;16733;48.738;9.106;2022-07-21T00:23:49;9.23;;;6.45;;
29854;SDS011;16733;48.738;9.106;2022-07-21T00:26:14;11.35;;;6.05;;
29854;SDS011;16733;48.738;9.106;2022-07-21T00:28:40;10.10;;;6.22;;
29854;SDS011;16733;48.738;9.106;2022-07-21T00:31:06;9.48;;;6.05;;
29854;SDS011;16733;48.738;9.106;2022-07-21T00:33:31;9.95;;;6.18;;
29854;SDS011;16733;48.738;9.106;2022-07-21T00:35:57;12.70;;;6.60;;
29854;SDS011;16733;48.738;9.106;2022-07-21T00:41:48;13.00;;;6.55;;
29854;SDS011;16733;48.738;9.106;2022-07-21T00:44:23;11.18;;;6.38;;
29854;SDS011;16733;48.738;9.106;2022-07-21T00:46:51;9.30;;;6.45;;
29854;SDS011;16733;48.738;9.106;2022-07-21T00:49:17;11.98;;;6.78;;
29854;SDS011;16733;48.738;9.106;2022-07-21T00:51:43;11.50;;;7.15;;
29854;SDS011;16733;48.738;9.106;2022-07-21T00:54:09;15.57;;;7.20;;
29854;SDS011;16733;48.738;9.106;2022-07-21T00:56:35;13.18;;;7.13;;
29854;SDS011;16733;48.738;9.106;2022-07-21T01:02:23;10.88;;;7.05;;
29854;SDS011;16733;48.738;9.106;2022-07-21T01:04:51;9.02;;;6.07;;
29854;SDS011;16733;48.738;9.106;2022-07-21T01:07:17;10.18;;;6.70;;
29854;SDS011;16733;48.738;9.106;2022-07-21T01:09:44;12.25;;;7.03;;
29854;SDS011;16733;48.738;9.106;2022-07-21T01:12:10;9.85;;;5.72;;
29854;SDS011;16733;48.738;9.106;2022-07-21T01:14:36;10.52;;;5.90;;
29854;SDS011;16733;48.738;9.106;2022-07-21T01:17:02;10.15;;;5.68;;
29854;SDS011;16733;48.738;9.106;2022-07-21T01:19:28;7.85;;;4.93;;
29854;SDS011;16733;48.738;9.106;2022-07-21T01:21:54;6.85;;;4.55;;
29854;SDS011;16733;48.738;9.106;2022-07-21T01:24:59;7.32;;;5.10;;
29854;SDS011;16733;48.738;9.106;2022-07-21T01:27:28;9.57;;;5.72;;
29854;SDS011;16733;48.738;9.106;2022-07-21T01:29:54;10.60;;;5.60;;
29854;SDS011;16733;48.738;9.106;2022-07-21T01:32:20;10.00;;;5.22;;
29854;SDS011;16733;48.738;9.106;2022-07-21T01:42:08;9.43;;;4.55;;
29854;SDS011;16733;48.738;9.106;2022-07-21T01:44:34;8.77;;;5.15;;
29854;SDS011;16733;48.738;9.106;2022-07-21T01:50:22;8.73;;;4.45;;
29854;SDS011;16733;48.738;9.106;2022-07-21T01:52:52;6.68;;;4.28;;
29854;SDS011;16733;48.738;9.106;2022-07-21T01:58:40;9.52;;;4.32;;
29854;SDS011;16733;48.738;9.106;2022-07-21T02:01:06;8.57;;;4.85;;
29854;SDS011;16733;48.738;9.106;2022-07-21T02:03:32;5.75;;;4.05;;
29854;SDS011;16733;48.738;9.106;2022-07-21T02:09:19;9.40;;;4.60;;
29854;SDS011;16733;48.738;9.106;2022-07-21T02:11:45;9.85;;;4.65;;
29854;SDS011;16733;48.738;9.106;2022-07-21T02:17:33;9.88;;;4.80;;
29854;SDS011;16733;48.738;9.106;2022-07-21T02:19:58;12.57;;;5.20;;
29854;SDS011;16733;48.738;9.106;2022-07-21T02:25:46;8.95;;;4.80;;
29854;SDS011;16733;48.738;9.106;2022-07-21T02:28:12;8.07;;;5.03;;
29854;SDS011;16733;48.738;9.106;2022-07-21T02:30:38;6.55;;;4.72;;
29854;SDS011;16733;48.738;9.106;2022-07-21T02:33:04;9.35;;;5.07;;
29854;SDS011;16733;48.738;9.106;2022-07-21T02:35:30;9.13;;;4.88;;
29854;SDS011;16733;48.738;9.106;2022-07-21T02:37:56;10.82;;;5.18;;
29854;SDS011;16733;48.738;9.106;2022-07-21T02:40:21;7.00;;;4.90;;
29854;SDS011;16733;48.738;9.106;2022-07-21T02:42:47;8.75;;;5.45;;
29854;SDS011;16733;48.738;9.106;2022-07-21T02:45:13;9.80;;;5.10;;
29854;SDS011;16733;48.738;9.106;2022-07-21T02:47:48;10.77;;;4.85;;
29854;SDS011;16733;48.738;9.106;2022-07-21T02:50:23;6.13;;;4.47;;
29854;SDS011;16733;48.738;9.106;2022-07-21T02:53:10;8.10;;;4.72;;
29854;SDS011;16733;48.738;9.106;2022-07-21T02:59:04;8.68;;;4.60;;
29854;SDS011;16733;48.738;9.106;2022-07-21T03:01:30;7.00;;;4.43;;
29854;SDS011;16733;48.738;9.106;2022-07-21T03:03:55;9.40;;;4.47;;
29854;SDS011;16733;48.738;9.106;2022-07-21T03:06:21;7.53;;;4.75;;
29854;SDS011;16733;48.738;9.106;2022-07-21T03:08:46;8.63;;;4.45;;
29854;SDS011;16733;48.738;9.106;2022-07-21T03:11:12;7.30;;;4.65;;
29854;SDS011;16733;48.738;9.106;2022-07-21T03:13:38;8.00;;;4.43;;
29854;SDS011;16733;48.738;9.106;2022-07-21T03:16:03;10.98;;;3.75;;
29854;SDS011;16733;48.738;9.106;2022-07-21T03:18:29;6.30;;;4.25;;
29854;SDS011;16733;48.738;9.106;2022-07-21T03:24:17;9.85;;;4.07;;
29854;SDS011;16733;48.738;9.106;2022-07-21T03:26:42;6.97;;;3.80;;
29854;SDS011;16733;48.738;9.106;2022-07-21T03:32:30;7.93;;;4.25;;
29854;SDS011;16733;48.738;9.106;2022-07-21T03:34:55;7.05;;;3.90;;
29854;SDS011;16733;48.738;9.106;2022-07-21T03:40:43;7.55;;;4.30;;
29854;SDS011;16733;48.738;9.106;2022-07-21T03:43:09;7.13;;;4.55;;
29854;SDS011;16733;48.738;9.106;2022-07-21T03:45:35;6.07;;;4.18;;
29854;SDS011;16733;48.738;9.106;2022-07-21T03:48:02;10.43;;;3.72;;
29854;SDS011;16733;48.738;9.106;2022-07-21T03:50:29;9.13;;;4.47;;
29854;SDS011;16733;48.738;9.106;2022-07-21T03:52:55;5.93;;;4.10;;
29854;SDS011;16733;48.738;9.106;2022-07-21T03:55:20;7.47;;;4.47;;
29854;SDS011;16733;48.738;9.106;2022-07-21T04:00:16;7.32;;;4.25;;
29854;SDS011;16733;48.738;9.106;2022-07-21T04:02:47;9.73;;;4.43;;
29854;SDS011;16733;48.738;9.106;2022-07-21T04:05:13;12.68;;;4.35;;
29854;SDS011;16733;48.738;9.106;2022-07-21T04:07:40;7.03;;;3.95;;
29854;SDS011;16733;48.738;9.106;2022-07-21T04:13:29;7.45;;;4.40;;
29854;SDS011;16733;48.738;9.106;2022-07-21T04:15:55;7.10;;;4.72;;
29854;SDS011;16733;48.738;9.106;2022-07-21T04:18:21;5.93;;;4.25;;
29854;SDS011;16733;48.738;9.106;2022-07-21T04:20:46;6.65;;;4.32;;
29854;SDS011;16733;48.738;9.106;2022-07-21T04:23:12;6.78;;;4.15;;
29854;SDS011;16733;48.738;9.106;2022-07-21T04:25:37;6.57;;;4.15;;
29854;SDS011;16733;48.738;9.106;2022-07-21T04:28:04;7.55;;;4.28;;
29854;SDS011;16733;48.738;9.106;2022-07-21T04:30:31;7.55;;;4.32;;
29854;SDS011;16733;48.738;9.106;2022-07-21T04:32:57;7.72;;;4.72;;
29854;SDS011;16733;48.738;9.106;2022-07-21T04:35:22;6.68;;;4.47;;
29854;SDS011;16733;48.738;9.106;2022-07-21T04:37:48;8.40;;;4.50;;
29854;SDS011;16733;48.738;9.106;2022-07-21T04:40:15;10.13;;;4.60;;
29854;SDS011;16733;48.738;9.106;2022-07-21T04:42:41;8.00;;;4.53;;
29854;SDS011;16733;48.738;9.106;2022-07-21T04:45:08;7.95;;;4.93;;
29854;SDS011;16733;48.738;9.106;2022-07-21T04:47:45;8.13;;;5.03;;
29854;SDS011;16733;48.738;9.106;2022-07-21T04:50:13;14.68;;;4.57;;
29854;SDS011;16733;48.738;9.106;2022-07-21T04:52:39;7.97;;;4.35;;
29854;SDS011;16733;48.738;9.106;2022-07-21T04:55:05;7.65;;;5.30;;
29854;SDS011;16733;48.738;9.106;2022-07-21T04:57:32;8.20;;;4.95;;
29854;SDS011;16733;48.738;9.106;2022-07-21T05:00:02;6.55;;;4.68;;
29854;SDS011;16733;48.738;9.106;2022-07-21T05:02:30;9.43;;;4.82;;
29854;SDS011;16733;48.738;9.106;2022-07-21T05:08:18;7.88;;;4.68;;
29854;SDS011;16733;48.738;9.106;2022-07-21T05:10:43;9.15;;;5.15;;
29854;SDS011;16733;48.738;9.106;2022-07-21T05:13:09;8.25;;;4.95;;
29854;SDS011;16733;48.738;9.106;2022-07-21T05:15:34;10.52;;;5.22;;
29854;SDS011;16733;48.738;9.106;2022-07-21T05:18:00;8.20;;;4.97;;
29854;SDS011;16733;48.738;9.106;2022-07-21T05:20:26;8.00;;;4.93;;
29854;SDS011;16733;48.738;9.106;2022-07-21T05:22:51;9.55;;;6.25;;
29854;SDS011;16733;48.738;9.106;2022-07-21T05:25:17;10.02;;;5.15;;
29854;SDS011;16733;48.738;9.106;2022-07-21T05:27:42;8.48;;;4.90;;
29854;SDS011;16733;48.738;9.106;2022-07-21T05:30:08;9.82;;;5.40;;
29854;SDS011;16733;48.738;9.106;2022-07-21T05:32:35;7.22;;;4.85;;
29854;SDS011;16733;48.738;9.106;2022-07-21T05:35:01;10.32;;;5.20;;
29854;SDS011;16733;48.738;9.106;2022-07-21T05:37:33;10.07;;;5.32;;
29854;SDS011;16733;48.738;9.106;2022-07-21T05:39:58;8.02;;;4.88;;
29854;SDS011;16733;48.738;9.106;2022-07-21T05:45:47;10.77;;;5.82;;
29854;SDS011;16733;48.738;9.106;2022-07-21T05:48:13;9.00;;;5.43;;
29854;SDS011;16733;48.738;9.106;2022-07-21T05:50:39;10.85;;;5.13;;
29854;SDS011;16733;48.738;9.106;2022-07-21T05:53:05;8.07;;;5.07;;
29854;SDS011;16733;48.738;9.106;2022-07-21T05:55:30;10.05;;;5.38;;
29854;SDS011;16733;48.738;9.106;2022-07-21T05:57:56;11.57;;;5.30;;
29854;SDS011;16733;48.738;9.106;2022-07-21T06:00:22;9.32;;;5.75;;
29854;SDS011;16733;48.738;9.106;2022-07-21T06:02:47;8.07;;;5.32;;
29854;SDS011;16733;48.738;9.106;2022-07-21T06:05:15;11.30;;;5.22;;
29854;SDS011;16733;48.738;9.106;2022-07-21T06:07:41;9.43;;;5.57;;
29854;SDS011;16733;48.738;9.106;2022-07-21T06:10:07;9.07;;;5.50;;
29854;SDS011;16733;48.738;9.106;2022-07-21T06:12:33;8.18;;;5.10;;
29854;SDS011;16733;48.738;9.106;2022-07-21T06:14:59;7.68;;;5.57;;
29854;SDS011;16733;48.738;9.106;2022-07-21T06:17:24;9.18;;;4.82;;
29854;SDS011;16733;48.738;9.106;2022-07-21T06:19:50;14.38;;;5.10;;
29854;SDS011;16733;48.738;9.106;2022-07-21T06:25:38;8.70;;;5.28;;
29854;SDS011;16733;48.738;9.106;2022-07-21T06:28:03;7.18;;;4.35;;
29854;SDS011;16733;48.738;9.106;2022-07-21T06:33:51;7.57;;;4.70;;
29854;SDS011;16733;48.738;9.106;2022-07-21T06:36:17;7.35;;;4.45;;
29854;SDS011;16733;48.738;9.106;2022-07-21T06:42:04;9.68;;;4.57;;
29854;SDS011;16733;48.738;9.106;2022-07-21T06:54:36;8.50;;;4.60;;
29854;SDS011;16733;48.738;9.106;2022-07-21T06:57:02;13.15;;;5.28;;
29854;SDS011;16733;48.738;9.106;2022-07-21T06:59:28;7.32;;;4.38;;
29854;SDS011;16733;48.738;9.106;2022-07-21T07:05:16;11.40;;;5.10;;
29854;SDS011;16733;48.738;9.106;2022-07-21T07:07:41;5.45;;;4.38;;
29854;SDS011;16733;48.738;9.106;2022-07-21T07:10:08;7.03;;;4.55;;
29854;SDS011;16733;48.738;9.106;2022-07-21T07:15:57;7.68;;;5.25;;
29854;SDS011;16733;48.738;9.106;2022-07-21T07:21:44;9.25;;;4.90;;
29854;SDS011;16733;48.738;9.106;2022-07-21T07:24:10;6.75;;;4.45;;
29854;SDS011;16733;48.738;9.106;2022-07-21T07:26:35;7.32;;;4.45;;
29854;SDS011;16733;48.738;9.106;2022-07-21T07:29:01;8.13;;;4.38;;
29854;SDS011;16733;48.738;9.106;2022-07-21T07:34:49;8.20;;;4.63;;
29854;SDS011;16733;48.738;9.106;2022-07-21T07:37:14;6.35;;;3.90;;
29854;SDS011;16733;48.738;9.106;2022-07-21T07:43:02;12.43;;;4.10;;
29854;SDS011;16733;48.738;9.106;2022-07-21T07:45:28;6.75;;;3.88;;
29854;SDS011;16733;48.738;9.106;2022-07-21T07:47:53;6.50;;;4.35;;
29854;SDS011;16733;48.738;9.106;2022-07-21T07:50:19;6.70;;;3.97;;
29854;SDS011;16733;48.738;9.106;2022-07-21T07:52:45;8.77;;;4.03;;
29854;SDS011;16733;48.738;9.106;2022-07-21T07:55:11;10.07;;;3.88;;
29854;SDS011;16733;48.738;9.106;2022-07-21T07:57:37;5.40;;;3.58;;
29854;SDS011;16733;48.738;9.106;2022-07-21T08:00:05;6.85;;;3.75;;
29854;SDS011;16733;48.738;9.106;2022-07-21T08:02:34;6.68;;;4.00;;
29854;SDS011;16733;48.738;9.106;2022-07-21T08:05:00;5.45;;;3.38;;
29854;SDS011;16733;48.738;9.106;2022-07-21T08:07:26;5.60;;;3.72;;
29854;SDS011;16733;48.738;9.106;2022-07-21T08:09:51;5.07;;;3.40;;
29854;SDS011;16733;48.738;9.106;2022-07-21T08:12:17;5.30;;;3.70;;
29854;SDS011;16733;48.738;9.106;2022-07-21T08:14:42;5.15;;;3.63;;
29854;SDS011;16733;48.738;9.106;2022-07-21T08:17:08;7.03;;;3.58;;
29854;SDS011;16733;48.738;9.106;2022-07-21T08:19:34;7.25;;;3.20;;
29854;SDS011;16733;48.738;9.106;2022-07-21T08:22:00;5.15;;;3.72;;
29854;SDS011;16733;48.738;9.106;2022-07-21T08:24:26;5.90;;;4.00;;
29854;SDS011;16733;48.738;9.106;2022-07-21T08:26:52;9.88;;;3.60;;
29854;SDS011;16733;48.738;9.106;2022-07-21T08:32:40;5.70;;;3.95;;
29854;SDS011;16733;48.738;9.106;2022-07-21T08:35:06;5.72;;;3.00;;
29854;SDS011;16733;48.738;9.106;2022-07-21T08:40:55;5.75;;;2.83;;
29854;SDS011;16733;48.738;9.106;2022-07-21T08:43:23;6.63;;;3.30;;
29854;SDS011;16733;48.738;9.106;2022-07-21T08:49:11;6.45;;;3.35;;
29854;SDS011;16733;48.738;9.106;2022-07-21T08:51:37;5.47;;;3.08;;
29854;SDS011;16733;48.738;9.106;2022-07-21T08:57:25;4.68;;;3.28;;
29854;SDS011;16733;48.738;9.106;2022-07-21T08:59:50;6.32;;;3.47;;
29854;SDS011;16733;48.738;9.106;2022-07-21T09:05:38;6.68;;;3.40;;
29854;SDS011;16733;48.738;9.106;2022-07-21T09:08:04;4.22;;;3.05;;
29854;SDS011;16733;48.738;9.106;2022-07-21T09:10:30;4.70;;;2.63;;
29854;SDS011;16733;48.738;9.106;2022-07-21T09:16:32;5.03;;;2.93;;
29854;SDS011;16733;48.738;9.106;2022-07-21T09:18:58;4.78;;;2.97;;
29854;SDS011;16733;48.738;9.106;2022-07-21T09:24:50;4.53;;;2.80;;
29854;SDS011;16733;48.738;9.106;2022-07-21T09:27:18;8.05;;;3.10;;
29854;SDS011;16733;48.738;9.106;2022-07-21T09:29:48;4.78;;;2.88;;
29854;SDS011;16733;48.738;9.106;2022-07-21T09:32:20;6.63;;;3.22;;
29854;SDS011;16733;48.738;9.106;2022-07-21T09:34:47;5.72;;;2.95;;
29854;SDS011;16733;48.738;9.106;2022-07-21T09:37:14;4.20;;;2.97;;
29854;SDS011;16733;48.738;9.106;2022-07-21T09:39:47;4.72;;;3.00;;
29854;SDS011;16733;48.738;9.106;2022-07-21T09:42:16;4.45;;;2.90;;
29854;SDS011;16733;48.738;9.106;2022-07-21T09:44:45;3.22;;;2.47;;
29854;SDS011;16733;48.738;9.106;2022-07-21T09:47:13;5.00;;;2.40;;
29854;SDS011;16733;48.738;9.106;2022-07-21T09:49:41;4.65;;;2.72;;
29854;SDS011;16733;48.738;9.106;2022-07-21T09:52:27;4.10;;;2.50;;
29854;SDS011;16733;48.738;9.106;2022-07-21T09:54:54;7.20;;;2.45;;
29854;SDS011;16733;48.738;9.106;2022-07-21T09:57:25;5.63;;;2.15;;
29854;SDS011;16733;48.738;9.106;2022-07-21T09:59:51;3.35;;;2.30;;
29854;SDS011;16733;48.738;9.106;2022-07-21T10:02:21;3.05;;;2.40;;
29854;SDS011;16733;48.738;9.106;2022-07-21T10:05:08;4.70;;;2.92;;
29854;SDS011;16733;48.738;9.106;2022-07-21T10:10:58;5.88;;;2.13;;
29854;SDS011;16733;48.738;9.106;2022-07-21T10:20:23;2.85;;;1.80;;
29854;SDS011;16733;48.738;9.106;2022-07-21T10:25:51;2.85;;;1.77;;
29854;SDS011;16733;48.738;9.106;2022-07-21T10:31:42;2.03;;;1.53;;
29854;SDS011;16733;48.738;9.106;2022-07-21T10:34:08;3.08;;;1.67;;
29854;SDS011;16733;48.738;9.106;2022-07-21T10:39:56;2.58;;;1.60;;
29854;SDS011;16733;48.738;9.106;2022-07-21T10:42:21;2.15;;;1.30;;
29854;SDS011;16733;48.738;9.106;2022-07-21T10:51:32;3.40;;;1.50;;
29854;SDS011;16733;48.738;9.106;2022-07-21T10:54:20;3.00;;;1.50;;
29854;SDS011;16733;48.738;9.106;2022-07-21T10:56:46;2.08;;;1.55;;
29854;SDS011;16733;48.738;9.106;2022-07-21T11:02:28;4.18;;;1.63;;
29854;SDS011;16733;48.738;9.106;2022-07-21T11:05:04;2.40;;;1.67;;
29854;SDS011;16733;48.738;9.106;2022-07-21T11:10:35;4.72;;;1.80;;
29854;SDS011;16733;48.738;9.106;2022-07-21T11:13:01;4.18;;;1.90;;
29854;SDS011;16733;48.738;9.106;2022-07-21T11:15:46;2.63;;;1.55;;
29854;SDS011;16733;48.738;9.106;2022-07-21T11:21:34;2.40;;;1.40;;
29854;SDS011;16733;48.738;9.106;2022-07-21T11:24:00;2.00;;;1.73;;
29854;SDS011;16733;48.738;9.106;2022-07-21T11:26:25;2.72;;;1.70;;
29854;SDS011;16733;48.738;9.106;2022-07-21T11:29:04;1.90;;;1.63;;
29854;SDS011;16733;48.738;9.106;2022-07-21T11:31:30;3.20;;;2.03;;
29854;SDS011;16733;48.738;9.106;2022-07-21T11:33:56;3.45;;;2.05;;
29854;SDS011;16733;48.738;9.106;2022-07-21T11:36:29;3.88;;;1.63;;
29854;SDS011;16733;48.738;9.106;2022-07-21T11:42:17;2.03;;;1.77;;
29854;SDS011;16733;48.738;9.106;2022-07-21T11:44:44;2.67;;;1.80;;
29854;SDS011;16733;48.738;9.106;2022-07-21T11:47:10;2.08;;;1.48;;
29854;SDS011;16733;48.738;9.106;2022-07-21T11:49:38;3.10;;;1.90;;
29854;SDS011;16733;48.738;9.106;2022-07-21T11:52:08;3.00;;;1.75;;
29854;SDS011;16733;48.738;9.106;2022-07-21T11:54:38;1.80;;;1.50;;
29854;SDS011;16733;48.738;9.106;2022-07-21T11:57:09;4.03;;;2.25;;
29854;SDS011;16733;48.738;9.106;2022-07-21T12:03:04;2.30;;;1.52;;
29854;SDS011;16733;48.738;9.106;2022-07-21T12:05:35;2.47;;;1.67;;
29854;SDS011;16733;48.738;9.106;2022-07-21T12:11:32;2.50;;;1.70;;
29854;SDS011;16733;48.738;9.106;2022-07-21T12:14:01;2.13;;;1.38;;
29854;SDS011;16733;48.738;9.106;2022-07-21T12:16:27;5.32;;;1.73;;
29854;SDS011;16733;48.738;9.106;2022-07-21T12:22:15;3.50;;;1.60;;
29854;SDS011;16733;48.738;9.106;2022-07-21T12:24:49;2.55;;;1.85;;
29854;SDS011;16733;48.738;9.106;2022-07-21T12:27:16;2.85;;;1.40;;
29854;SDS011;16733;48.738;9.106;2022-07-21T12:29:42;4.07;;;2.08;;
29854;SDS011;16733;48.738;9.106;2022-07-21T12:32:07;1.90;;;1.55;;
29854;SDS011;16733;48.738;9.106;2022-07-21T12:34:33;4.20;;;2.53;;
29854;SDS011;16733;48.738;9.106;2022-07-21T12:37:14;2.47;;;1.85;;
29854;SDS011;16733;48.738;9.106;2022-07-21T12:39:39;3.38;;;2.17;;
29854;SDS011;16733;48.738;9.106;2022-07-21T12:42:30;2.90;;;1.92;;
29854;SDS011;16733;48.738;9.106;2022-07-21T12:45:17;1.73;;;1.52;;
29854;SDS011;16733;48.738;9.106;2022-07-21T12:48:21;3.28;;;2.13;;
29854;SDS011;16733;48.738;9.106;2022-07-21T12:51:02;4.38;;;1.98;;
29854;SDS011;16733;48.738;9.106;2022-07-21T12:53:35;4.68;;;2.33;;
29854;SDS011;16733;48.738;9.106;2022-07-21T12:56:39;3.38;;;1.95;;
29854;SDS011;16733;48.738;9.106;2022-07-21T13:06:03;6.45;;;2.03;;
29854;SDS011;16733;48.738;9.106;2022-07-21T13:08:30;3.05;;;2.00;;
29854;SDS011;16733;48.738;9.106;2022-07-21T13:10:57;3.72;;;2.15;;
29854;SDS011;16733;48.738;9.106;2022-07-21T13:13:23;3.80;;;1.67;;
29854;SDS011;16733;48.738;9.106;2022-07-21T13:15:50;2.20;;;1.60;;
29854;SDS011;16733;48.738;9.106;2022-07-21T13:18:16;5.65;;;2.17;;
29854;SDS011;16733;48.738;9.106;2022-07-21T13:24:04;3.00;;;2.25;;
29854;SDS011;16733;48.738;9.106;2022-07-21T13:26:30;2.30;;;2.10;;
29854;SDS011;16733;48.738;9.106;2022-07-21T13:28:55;3.63;;;2.20;;
29854;SDS011;16733;48.738;9.106;2022-07-21T13:31:21;5.13;;;2.20;;
29854;SDS011;16733;48.738;9.106;2022-07-21T13:33:46;2.90;;;2.22;;
29854;SDS011;16733;48.738;9.106;2022-07-21T13:36:12;2.97;;;2.15;;
29854;SDS011;16733;48.738;9.106;2022-07-21T13:45:22;3.65;;;2.45;;
29854;SDS011;16733;48.738;9.106;2022-07-21T13:51:13;5.85;;;2.85;;
29854;SDS011;16733;48.738;9.106;2022-07-21T13:53:42;4.90;;;2.40;;
29854;SDS011;16733;48.738;9.106;2022-07-21T13:59:32;3.78;;;2.47;;
29854;SDS011;16733;48.738;9.106;2022-07-21T14:02:08;2.47;;;1.90;;
29854;SDS011;16733;48.738;9.106;2022-07-21T14:04:34;3.83;;;2.08;;
29854;SDS011;16733;48.738;9.106;2022-07-21T14:06:59;3.72;;;2.47;;
29854;SDS011;16733;48.738;9.106;2022-07-21T14:09:25;2.90;;;2.38;;
29854;SDS011;16733;48.738;9.106;2022-07-21T14:11:51;3.88;;;2.10;;
29854;SDS011;16733;48.738;9.106;2022-07-21T14:14:17;2.90;;;2.13;;
29854;SDS011;16733;48.738;9.106;2022-07-21T14:16:46;4.40;;;2.30;;
29854;SDS011;16733;48.738;9.106;2022-07-21T14:19:13;3.58;;;2.38;;
29854;SDS011;16733;48.738;9.106;2022-07-21T14:21:39;2.95;;;2.05;;
29854;SDS011;16733;48.738;9.106;2022-07-21T14:24:08;2.85;;;2.45;;
29854;SDS011;16733;48.738;9.106;2022-07-21T14:27:06;5.18;;;2.47;;
29854;SDS011;16733;48.738;9.106;2022-07-21T14:29:31;6.50;;;2.10;;
29854;SDS011;16733;48.738;9.106;2022-07-21T14:31:57;6.55;;;2.25;;
29854;SDS011;16733;48.738;9.106;2022-07-21T14:34:23;4.80;;;2.05;;
29854;SDS011;16733;48.738;9.106;2022-07-21T14:36:49;4.72;;;2.20;;
29854;SDS011;16733;48.738;9.106;2022-07-21T14:39:16;6.53;;;2.10;;
29854;SDS011;16733;48.738;9.106;2022-07-21T14:41:42;5.45;;;2.20;;
29854;SDS011;16733;48.738;9.106;2022-07-21T14:44:09;5.80;;;2.42;;
29854;SDS011;16733;48.738;9.106;2022-07-21T14:46:35;4.00;;;2.50;;
29854;SDS011;16733;48.738;9.106;2022-07-21T14:49:01;5.90;;;2.30;;
29854;SDS011;16733;48.738;9.106;2022-07-21T14:51:26;4.45;;;2.35;;
29854;SDS011;16733;48.738;9.106;2022-07-21T14:53:52;2.63;;;1.95;;
29854;SDS011;16733;48.738;9.106;2022-07-21T14:56:18;3.67;;;2.03;;
29854;SDS011;16733;48.738;9.106;2022-07-21T14:58:43;4.45;;;2.05;;
29854;SDS011;16733;48.738;9.106;2022-07-21T15:01:09;3.47;;;1.98;;
29854;SDS011;16733;48.738;9.106;2022-07-21T15:03:34;5.78;;;2.10;;
29854;SDS011;16733;48.738;9.106;2022-07-21T15:06:00;3.67;;;2.25;;
29854;SDS011;16733;48.738;9.106;2022-07-21T15:08:26;3.33;;;2.17;;
29854;SDS011;16733;48.738;9.106;2022-07-21T15:10:51;3.28;;;2.05;;
29854;SDS011;16733;48.738;9.106;2022-07-21T15:13:17;3.72;;;2.03;;
29854;SDS011;16733;48.738;9.106;2022-07-21T15:15:42;2.70;;;2.00;;
29854;SDS011;16733;48.738;9.106;2022-07-21T15:18:08;5.13;;;1.85;;
29854;SDS011;16733;48.738;9.106;2022-07-21T15:20:34;2.30;;;1.70;;
29854;SDS011;16733;48.738;9.106;2022-07-21T15:23:00;4.22;;;2.05;;
29854;SDS011;16733;48.738;9.106;2022-07-21T15:25:26;3.15;;;1.50;;
29854;SDS011;16733;48.738;9.106;2022-07-21T15:27:51;2.28;;;1.48;;
29854;SDS011;16733;48.738;9.106;2022-07-21T15:30:17;2.17;;;1.80;;
29854;SDS011;16733;48.738;9.106;2022-07-21T15:32:43;2.95;;;1.77;;
29854;SDS011;16733;48.738;9.106;2022-07-21T15:35:09;2.08;;;1.58;;
29854;SDS011;16733;48.738;9.106;2022-07-21T15:37:35;2.72;;;1.80;;
29854;SDS011;16733;48.738;9.106;2022-07-21T15:40:01;3.17;;;2.10;;
29854;SDS011;16733;48.738;9.106;2022-07-21T15:42:28;2.58;;;1.85;;
29854;SDS011;16733;48.738;9.106;2022-07-21T15:44:56;3.22;;;1.88;;
29854;SDS011;16733;48.738;9.106;2022-07-21T15:47:21;2.90;;;1.70;;
29854;SDS011;16733;48.738;9.106;2022-07-21T15:49:47;2.72;;;1.70;;
29854;SDS011;16733;48.738;9.106;2022-07-21T15:52:13;2.97;;;2.00;;
29854;SDS011;16733;48.738;9.106;2022-07-21T15:54:39;2.30;;;1.77;;
29854;SDS011;16733;48.738;9.106;2022-07-21T15:57:05;5.25;;;2.15;;
29854;SDS011;16733;48.738;9.106;2022-07-21T15:59:31;3.08;;;1.60;;
29854;SDS011;16733;48.738;9.106;2022-07-21T16:02:00;5.03;;;2.00;;
29854;SDS011;16733;48.738;9.106;2022-07-21T16:04:27;2.85;;;1.63;;
29854;SDS011;16733;48.738;9.106;2022-07-21T16:06:52;2.58;;;1.50;;
29854;SDS011;16733;48.738;9.106;2022-07-21T16:09:19;3.08;;;1.63;;
29854;SDS011;16733;48.738;9.106;2022-07-21T16:11:44;2.25;;;1.77;;
29854;SDS011;16733;48.738;9.106;2022-07-21T16:14:10;3.45;;;2.20;;
29854;SDS011;16733;48.738;9.106;2022-07-21T16:16:36;3.85;;;1.58;;
29854;SDS011;16733;48.738;9.106;2022-07-21T16:19:01;3.13;;;1.90;;
29854;SDS011;16733;48.738;9.106;2022-07-21T16:21:28;4.30;;;2.15;;
29854;SDS011;16733;48.738;9.106;2022-07-21T16:23:54;2.45;;;1.73;;
29854;SDS011;16733;48.738;9.106;2022-07-21T16:26:20;3.60;;;2.00;;
29854;SDS011;16733;48.738;9.106;2022-07-21T16:28:46;5.95;;;2.25;;
29854;SDS011;16733;48.738;9.106;2022-07-21T16:31:11;4.93;;;2.03;;
29854;SDS011;16733;48.738;9.106;2022-07-21T16:33:37;3.13;;;2.22;;
29854;SDS011;16733;48.738;9.106;2022-07-21T16:36:03;2.47;;;2.00;;
29854;SDS011;16733;48.738;9.106;2022-07-21T16:38:29;4.55;;;1.75;;
29854;SDS011;16733;48.738;9.106;2022-07-21T16:40:55;2.40;;;1.77;;
29854;SDS011;16733;48.738;9.106;2022-07-21T16:43:20;2.47;;;2.08;;
29854;SDS011;16733;48.738;9.106;2022-07-21T16:45:46;2.83;;;1.80;;
29854;SDS011;16733;48.738;9.106;2022-07-21T16:48:12;3.28;;;1.92;;
29854;SDS011;16733;48.738;9.106;2022-07-21T16:50:37;3.42;;;1.52;;
29854;SDS011;16733;48.738;9.106;2022-07-21T16:53:03;3.00;;;1.70;;
29854;SDS011;16733;48.738;9.106;2022-07-21T16:55:29;3.08;;;1.90;;
29854;SDS011;16733;48.738;9.106;2022-07-21T16:57:55;3.58;;;2.17;;
29854;SDS011;16733;48.738;9.106;2022-07-21T17:00:20;3.17;;;1.95;;
29854;SDS011;16733;48.738;9.106;2022-07-21T17:02:46;4.35;;;1.90;;
29854;SDS011;16733;48.738;9.106;2022-07-21T17:05:11;2.53;;;1.80;;
29854;SDS011;16733;48.738;9.106;2022-07-21T17:07:43;3.72;;;1.88;;
29854;SDS011;16733;48.738;9.106;2022-07-21T17:10:09;3.10;;;1.98;;
29854;SDS011;16733;48.738;9.106;2022-07-21T17:12:36;3.28;;;1.83;;
29854;SDS011;16733;48.738;9.106;2022-07-21T17:15:02;2.13;;;1.70;;
29854;SDS011;16733;48.738;9.106;2022-07-21T17:17:29;3.40;;;2.00;;
29854;SDS011;16733;48.738;9.106;2022-07-21T17:19:54;2.75;;;1.85;;
29854;SDS011;16733;48.738;9.106;2022-07-21T17:22:20;3.65;;;1.85;;
29854;SDS011;16733;48.738;9.106;2022-07-21T17:24:46;2.80;;;1.92;;
29854;SDS011;16733;48.738;9.106;2022-07-21T17:27:12;2.90;;;2.00;;
29854;SDS011;16733;48.738;9.106;2022-07-21T17:29:38;2.92;;;1.77;;
29854;SDS011;16733;48.738;9.106;2022-07-21T17:32:04;2.17;;;1.83;;
29854;SDS011;16733;48.738;9.106;2022-07-21T17:34:30;2.67;;;2.00;;
29854;SDS011;16733;48.738;9.106;2022-07-21T17:36:55;2.17;;;1.90;;
29854;SDS011;16733;48.738;9.106;2022-07-21T17:39:21;4.65;;;1.52;;
29854;SDS011;16733;48.738;9.106;2022-07-21T17:41:47;2.20;;;1.80;;
29854;SDS011;16733;48.738;9.106;2022-07-21T17:44:12;2.83;;;1.90;;
29854;SDS011;16733;48.738;9.106;2022-07-21T17:46:38;5.50;;;2.08;;
29854;SDS011;16733;48.738;9.106;2022-07-21T17:49:03;4.07;;;1.90;;
29854;SDS011;16733;48.738;9.106;2022-07-21T17:51:29;3.35;;;1.95;;
29854;SDS011;16733;48.738;9.106;2022-07-21T17:53:54;4.97;;;1.83;;
29854;SDS011;16733;48.738;9.106;2022-07-21T17:56:20;3.20;;;1.83;;
29854;SDS011;16733;48.738;9.106;2022-07-21T17:58:46;2.42;;;1.77;;
29854;SDS011;16733;48.738;9.106;2022-07-21T18:01:12;4.70;;;1.70;;
29854;SDS011;16733;48.738;9.106;2022-07-21T18:03:43;2.65;;;1.77;;